createdAt,value
2023-03-11T00:01:18.869Z,54.46
2023-03-11T00:03:45.712Z,54.34
2023-03-11T00:06:12.487Z,54.30
2023-03-11T00:08:39.372Z,54.38
2023-03-11T00:11:08.210Z,54.62
2023-03-11T00:13:35.236Z,53.63
2023-03-11T00:16:04.552Z,54.30
2023-03-11T00:18:35.023Z,54.16
2023-03-11T00:21:03.128Z,54.79
2023-03-11T00:23:30.076Z,54.78
2023-03-11T00:25:57.548Z,55.03
2023-03-11T00:28:25.495Z,55.20
2023-03-11T00:30:52.726Z,54.69
2023-03-11T00:33:21.861Z,55.33
2023-03-11T00:35:50.379Z,55.05
2023-03-11T00:38:20.468Z,56.58
2023-03-11T00:40:48.921Z,58.96
2023-03-11T00:43:16.736Z,63.12
2023-03-11T00:45:44.299Z,67.05
2023-03-11T00:48:13.381Z,70.41
2023-03-11T00:50:42.764Z,71.85
2023-03-11T00:53:10.420Z,72.05
2023-03-11T00:55:38.578Z,71.23
2023-03-11T00:58:08.805Z,69.86
2023-03-11T01:00:43.536Z,68.94
2023-03-11T01:03:10.671Z,66.87
2023-03-11T01:05:38.572Z,66.68
2023-03-11T01:08:05.997Z,67.05
2023-03-11T01:10:34.331Z,64.95
2023-03-11T01:13:02.317Z,63.96
2023-03-11T01:15:35.223Z,63.03
2023-03-11T01:18:03.610Z,62.05
2023-03-11T01:20:33.216Z,61.29
2023-03-11T01:23:00.020Z,61.65
2023-03-11T01:25:29.632Z,60.42
2023-03-11T01:28:00.739Z,59.73
2023-03-11T01:30:30.397Z,60.83
2023-03-11T01:32:58.602Z,60.54
2023-03-11T01:35:28.316Z,60.84
2023-03-11T01:37:59.891Z,61.01
2023-03-11T01:40:31.431Z,60.87
2023-03-11T01:43:03.408Z,61.46
2023-03-11T01:45:49.419Z,61.68
2023-03-11T01:48:18.950Z,62.63
2023-03-11T01:50:50.820Z,61.28
2023-03-11T01:53:22.265Z,61.21
2023-03-11T01:55:49.648Z,60.10
2023-03-11T01:58:21.402Z,57.81
2023-03-11T02:00:48.349Z,58.21
2023-03-11T02:03:26.551Z,56.87
2023-03-11T02:05:57.369Z,55.03
2023-03-11T02:08:24.228Z,53.06
2023-03-11T02:10:53.366Z,52.52
2023-03-11T02:13:21.822Z,51.76
2023-03-11T02:15:48.909Z,52.07
2023-03-11T02:18:20.573Z,51.88
2023-03-11T02:20:58.886Z,51.58
2023-03-11T02:23:34.383Z,51.81
2023-03-11T02:26:15.365Z,52.29
2023-03-11T02:28:43.842Z,51.83
2023-03-11T02:31:11.433Z,50.85
2023-03-11T02:33:38.512Z,50.87
2023-03-11T02:36:07.659Z,48.55
2023-03-11T02:38:35.680Z,49.25
2023-03-11T02:41:03.046Z,49.02
2023-03-11T02:46:33.734Z,48.55
2023-03-11T02:49:01.211Z,48.78
2023-03-11T02:51:28.056Z,48.96
2023-03-11T02:53:59.971Z,48.06
2023-03-11T02:56:29.101Z,47.78
2023-03-11T02:58:56.699Z,48.26
2023-03-11T03:01:24.985Z,47.73
2023-03-11T03:03:51.979Z,47.29
2023-03-11T03:06:20.045Z,47.91
2023-03-11T03:08:52.675Z,48.53
2023-03-11T03:11:21.577Z,47.92
2023-03-11T03:13:50.659Z,47.43
2023-03-11T03:16:17.889Z,47.94
2023-03-11T03:18:45.450Z,47.99
2023-03-11T03:21:12.252Z,48.64
2023-03-11T03:23:39.166Z,48.30
2023-03-11T03:26:06.279Z,48.35
2023-03-11T03:28:36.427Z,48.86
2023-03-11T03:31:08.682Z,48.87
2023-03-11T03:33:38.384Z,48.73
2023-03-11T03:36:10.734Z,48.59
2023-03-11T03:38:44.611Z,49.45
2023-03-11T03:41:15.833Z,48.50
2023-03-11T03:43:44.360Z,48.61
2023-03-11T03:46:11.917Z,48.71
2023-03-11T03:48:43.101Z,48.30
2023-03-11T03:51:13.519Z,48.90
2023-03-11T03:53:56.350Z,48.34
2023-03-11T03:56:25.446Z,48.25
2023-03-11T03:58:54.015Z,49.10
2023-03-11T04:01:26.629Z,48.86
2023-03-11T04:03:53.569Z,48.24
2023-03-11T04:06:24.770Z,48.15
2023-03-11T04:09:16.900Z,47.80
2023-03-11T04:11:43.950Z,47.89
2023-03-11T04:14:13.513Z,47.61
2023-03-11T04:16:46.444Z,46.85
2023-03-11T04:19:15.008Z,47.86
2023-03-11T04:21:41.993Z,47.46
2023-03-11T04:24:09.619Z,47.20
2023-03-11T04:26:39.212Z,47.93
2023-03-11T04:29:10.210Z,47.29
2023-03-11T04:31:41.997Z,47.65
2023-03-11T04:34:11.730Z,46.95
2023-03-11T04:36:40.119Z,46.65
2023-03-11T04:39:08.438Z,47.64
2023-03-11T04:41:40.867Z,47.47
2023-03-11T04:44:09.988Z,47.19
2023-03-11T04:46:37.511Z,46.95
2023-03-11T04:49:07.173Z,46.40
2023-03-11T04:51:38.740Z,47.11
2023-03-11T04:54:07.246Z,46.54
2023-03-11T04:56:35.743Z,47.40
2023-03-11T04:59:04.303Z,47.26
2023-03-11T05:01:34.080Z,47.39
2023-03-11T05:04:04.689Z,47.24
2023-03-11T05:06:31.848Z,46.51
2023-03-11T05:09:01.098Z,47.04
2023-03-11T05:11:29.675Z,47.20
2023-03-11T05:13:57.438Z,47.69
2023-03-11T05:16:24.899Z,47.25
2023-03-11T05:18:51.788Z,47.22
2023-03-11T05:21:20.786Z,47.32
2023-03-11T05:23:47.719Z,46.87
2023-03-11T05:26:15.027Z,46.93
2023-03-11T05:28:47.670Z,46.99
2023-03-11T05:31:15.872Z,46.72
2023-03-11T05:33:43.417Z,46.98
2023-03-11T05:36:12.799Z,46.88
2023-03-11T05:38:43.293Z,46.72
2023-03-11T05:41:12.900Z,46.76
2023-03-11T05:43:42.186Z,46.61
2023-03-11T05:46:09.219Z,47.14
2023-03-11T05:48:36.089Z,47.01
2023-03-11T05:51:10.414Z,47.09
2023-03-11T05:53:39.316Z,47.65
2023-03-11T05:56:06.439Z,47.18
2023-03-11T05:58:33.526Z,47.44
2023-03-11T06:01:00.537Z,47.81
2023-03-11T06:06:20.787Z,47.18
2023-03-11T06:08:47.707Z,48.07
2023-03-11T06:11:18.094Z,47.71
2023-03-11T06:14:12.829Z,47.45
2023-03-11T06:16:42.826Z,47.69
2023-03-11T06:19:13.469Z,47.87
2023-03-11T06:21:46.824Z,47.60
2023-03-11T06:24:14.369Z,48.44
2023-03-11T06:26:43.984Z,48.17
2023-03-11T06:29:14.898Z,47.64
2023-03-11T06:31:42.910Z,48.30
2023-03-11T06:39:58.829Z,47.71
2023-03-11T06:42:26.869Z,48.10
2023-03-11T06:44:57.074Z,48.45
2023-03-11T06:47:25.991Z,48.43
2023-03-11T06:49:52.938Z,48.08
2023-03-11T06:52:20.114Z,48.05
2023-03-11T06:54:50.452Z,48.13
2023-03-11T06:57:17.741Z,48.80
2023-03-11T06:59:46.897Z,48.71
2023-03-11T07:02:17.012Z,48.24
2023-03-11T07:04:44.038Z,48.50
2023-03-11T07:07:10.880Z,48.07
2023-03-11T07:09:39.347Z,48.96
2023-03-11T07:12:09.873Z,48.54
2023-03-11T07:14:37.485Z,48.47
2023-03-11T07:17:04.304Z,49.16
2023-03-11T07:19:36.330Z,49.16
2023-03-11T07:22:03.115Z,48.82
2023-03-11T07:24:30.186Z,48.32
2023-03-11T07:26:56.987Z,48.42
2023-03-11T07:29:24.288Z,48.60
2023-03-11T07:31:51.059Z,48.74
2023-03-11T07:34:19.453Z,48.54
2023-03-11T07:36:47.350Z,48.56
2023-03-11T07:39:17.715Z,48.70
2023-03-11T07:41:46.890Z,49.09
2023-03-11T07:44:15.737Z,49.25
2023-03-11T07:46:43.827Z,48.66
2023-03-11T07:49:11.894Z,48.74
2023-03-11T07:51:39.898Z,48.31
2023-03-11T07:54:07.176Z,48.50
2023-03-11T07:56:35.692Z,48.67
2023-03-11T07:59:04.719Z,49.04
2023-03-11T08:01:34.163Z,48.86
2023-03-11T08:04:03.749Z,48.51
2023-03-11T08:06:33.949Z,47.49
2023-03-11T08:09:02.347Z,48.22
2023-03-11T08:11:30.782Z,48.04
2023-03-11T08:13:57.873Z,48.27
2023-03-11T08:16:29.433Z,47.47
2023-03-11T08:18:56.513Z,47.44
2023-03-11T08:21:27.697Z,47.13
2023-03-11T08:23:58.313Z,47.83
2023-03-11T08:26:25.868Z,47.51
2023-03-11T08:28:52.651Z,47.68
2023-03-11T08:31:23.950Z,47.93
2023-03-11T08:33:52.864Z,47.53
2023-03-11T08:36:21.115Z,48.22
2023-03-11T08:38:48.593Z,46.81
2023-03-11T08:41:16.049Z,46.67
2023-03-11T08:43:43.545Z,46.01
2023-03-11T08:46:20.548Z,45.99
2023-03-11T08:48:47.458Z,45.92
2023-03-11T08:51:14.827Z,44.62
2023-03-11T08:53:43.483Z,47.84
2023-03-11T08:56:10.908Z,45.53
2023-03-11T08:58:37.777Z,48.16
2023-03-11T09:04:00.520Z,45.00
2023-03-11T09:06:27.308Z,44.51
2023-03-11T09:08:54.117Z,44.03
2023-03-11T09:11:21.469Z,44.59
2023-03-11T09:13:49.976Z,43.40
2023-03-11T09:16:23.021Z,43.37
2023-03-11T09:18:50.630Z,44.21
2023-03-11T09:21:17.536Z,43.55
2023-03-11T09:23:44.732Z,44.08
2023-03-11T09:26:12.791Z,44.53
2023-03-11T09:28:40.766Z,43.69
2023-03-11T09:31:07.644Z,44.01
2023-03-11T09:33:41.910Z,43.35
2023-03-11T09:36:14.066Z,44.31
2023-03-11T09:38:43.049Z,44.59
2023-03-11T09:41:23.108Z,44.47
2023-03-11T09:44:01.706Z,45.37
2023-03-11T09:46:49.517Z,45.74
2023-03-11T09:49:27.900Z,46.03
2023-03-11T09:52:06.356Z,46.53
2023-03-11T09:54:39.881Z,44.91
2023-03-11T09:57:15.195Z,45.10
2023-03-11T09:59:42.876Z,45.82
2023-03-11T10:02:16.339Z,45.79
2023-03-11T10:04:59.889Z,45.61
2023-03-11T10:07:35.308Z,46.15
2023-03-11T10:10:02.527Z,46.40
2023-03-11T10:12:35.370Z,45.98
2023-03-11T10:15:39.406Z,45.98
2023-03-11T10:18:57.750Z,45.68
2023-03-11T10:21:46.362Z,45.63
2023-03-11T10:24:28.076Z,45.16
2023-03-11T10:27:00.158Z,45.22
2023-03-11T10:29:32.479Z,45.57
2023-03-11T10:32:07.530Z,46.15
2023-03-11T10:35:13.899Z,46.02
2023-03-11T10:37:49.588Z,46.61
2023-03-11T10:44:01.807Z,47.36
2023-03-11T10:46:29.362Z,47.35
2023-03-11T10:48:56.222Z,47.17
2023-03-11T10:51:32.405Z,48.46
2023-03-11T10:54:01.846Z,46.96
2023-03-11T10:56:33.892Z,47.50
2023-03-11T10:59:04.853Z,47.83
2023-03-11T11:01:32.805Z,47.81
2023-03-11T11:04:01.867Z,46.68
2023-03-11T11:06:34.946Z,46.21
2023-03-11T11:09:06.175Z,45.90
2023-03-11T11:11:36.554Z,45.04
2023-03-11T11:14:03.946Z,43.95
2023-03-11T11:16:33.774Z,44.43
2023-03-11T11:19:14.998Z,44.49
2023-03-11T11:21:47.772Z,44.21
2023-03-11T11:24:29.093Z,44.94
2023-03-11T11:27:17.161Z,44.16
2023-03-11T11:29:45.025Z,43.60
2023-03-11T11:32:23.770Z,43.97
2023-03-11T11:35:01.498Z,43.89
2023-03-11T11:37:34.960Z,43.85
2023-03-11T11:40:05.950Z,43.53
2023-03-11T11:42:34.634Z,43.60
2023-03-11T11:45:13.950Z,44.43
2023-03-11T11:47:48.349Z,44.10
2023-03-11T11:50:31.791Z,44.14
2023-03-11T11:53:17.769Z,44.17
2023-03-11T11:55:50.707Z,43.77
2023-03-11T11:58:19.831Z,43.07
2023-03-11T12:01:04.383Z,43.86
2023-03-11T12:03:54.023Z,43.99
2023-03-11T12:06:50.669Z,44.03
2023-03-11T12:09:30.234Z,44.95
2023-03-11T12:12:13.975Z,44.98
2023-03-11T12:15:00.973Z,45.89
2023-03-11T12:17:31.176Z,45.94
2023-03-11T12:20:12.365Z,46.49
2023-03-11T12:22:39.559Z,46.41
2023-03-11T12:25:23.340Z,47.43
2023-03-11T12:27:57.723Z,46.37
2023-03-11T12:30:30.315Z,46.88
2023-03-11T12:33:12.006Z,45.80
2023-03-11T12:35:39.724Z,46.36
2023-03-11T12:38:14.512Z,46.27
2023-03-11T12:40:50.091Z,46.63
2023-03-11T12:43:47.336Z,46.92
2023-03-11T12:46:16.746Z,47.09
2023-03-11T12:49:02.560Z,46.60
2023-03-11T12:51:32.378Z,46.98
2023-03-11T12:53:59.109Z,46.55
2023-03-11T12:56:38.734Z,46.21
2023-03-11T12:59:23.474Z,46.16
2023-03-11T13:02:00.407Z,46.56
2023-03-11T13:04:41.103Z,46.18
2023-03-11T13:07:22.497Z,46.31
2023-03-11T13:10:13.372Z,46.79
2023-03-11T13:12:44.957Z,45.63
2023-03-11T13:15:22.824Z,45.87
2023-03-11T13:18:13.316Z,46.59
2023-03-11T13:20:40.529Z,46.91
2023-03-11T13:23:29.576Z,46.10
2023-03-11T13:25:56.513Z,47.50
2023-03-11T13:28:54.451Z,46.58
2023-03-11T13:32:15.833Z,45.53
2023-03-11T13:35:10.791Z,46.71
2023-03-11T13:37:56.985Z,46.43
2023-03-11T13:40:37.126Z,46.66
2023-03-11T13:43:29.714Z,47.06
2023-03-11T13:46:14.481Z,46.42
2023-03-11T13:48:46.995Z,46.90
2023-03-11T13:51:38.110Z,46.38
2023-03-11T13:54:18.756Z,46.52
2023-03-11T13:56:55.030Z,47.18
2023-03-11T13:59:27.380Z,46.48
2023-03-11T14:02:01.158Z,42.97
2023-03-11T14:04:33.978Z,42.66
2023-03-11T14:07:12.347Z,43.43
2023-03-11T14:09:39.372Z,42.86
2023-03-11T14:12:07.921Z,43.58
2023-03-11T14:14:58.242Z,43.47
2023-03-11T14:17:25.401Z,44.56
2023-03-11T14:20:12.776Z,43.34
2023-03-11T14:22:45.586Z,42.92
2023-03-11T14:25:23.126Z,44.00
2023-03-11T14:27:57.556Z,44.45
2023-03-11T14:30:29.088Z,43.90
2023-03-11T14:33:03.018Z,43.94
2023-03-11T14:35:33.281Z,44.96
2023-03-11T14:38:01.487Z,43.31
2023-03-11T14:40:34.477Z,43.21
2023-03-11T14:43:11.578Z,43.87
2023-03-11T14:45:42.051Z,43.71
2023-03-11T14:48:24.546Z,43.87
2023-03-11T14:50:52.651Z,44.10
2023-03-11T14:57:14.361Z,42.59
2023-03-11T14:59:41.862Z,43.06
2023-03-11T15:06:00.119Z,42.25
2023-03-11T15:08:35.244Z,42.65
2023-03-11T15:11:21.477Z,42.57
2023-03-11T15:13:53.178Z,43.01
2023-03-11T15:16:33.599Z,41.39
2023-03-11T15:19:21.091Z,41.55
2023-03-11T15:21:53.121Z,41.63
2023-03-11T15:24:29.291Z,42.00
2023-03-11T15:27:02.632Z,42.57
2023-03-11T15:29:31.100Z,42.31
2023-03-11T15:31:59.330Z,42.84
2023-03-11T15:34:33.713Z,42.65
2023-03-11T15:37:18.952Z,41.58
2023-03-11T15:39:49.642Z,41.74
2023-03-11T15:42:21.724Z,43.45
2023-03-11T15:44:52.174Z,41.50
2023-03-11T15:47:22.774Z,41.86
2023-03-11T15:49:51.238Z,40.92
2023-03-11T15:52:19.345Z,41.06
2023-03-11T15:54:55.072Z,41.00
2023-03-11T15:57:27.578Z,41.30
2023-03-11T15:59:59.101Z,41.34
2023-03-11T16:02:29.095Z,40.86
2023-03-11T16:04:58.852Z,40.61
2023-03-11T16:07:39.283Z,40.57
2023-03-11T16:10:11.841Z,40.69
2023-03-11T16:12:39.492Z,40.76
2023-03-11T16:15:21.070Z,40.74
2023-03-11T16:17:50.211Z,40.62
2023-03-11T16:20:21.662Z,40.86
2023-03-11T16:22:55.576Z,41.39
2023-03-11T16:25:36.343Z,41.84
2023-03-11T16:28:04.365Z,41.97
2023-03-11T16:30:34.602Z,42.51
2023-03-11T16:33:05.021Z,42.52
2023-03-11T16:35:32.892Z,42.31
2023-03-11T16:38:01.955Z,43.39
2023-03-11T16:41:00.502Z,43.00
2023-03-11T16:43:29.830Z,42.68
2023-03-11T16:45:57.599Z,43.00
2023-03-11T16:48:27.391Z,43.01
2023-03-11T16:50:55.086Z,43.37
2023-03-11T16:53:22.712Z,43.53
2023-03-11T16:55:49.742Z,43.17
2023-03-11T16:58:18.103Z,43.22
2023-03-11T17:00:45.546Z,43.32
2023-03-11T17:03:21.536Z,43.26
2023-03-11T17:05:50.135Z,43.83
2023-03-11T17:08:18.403Z,43.41
2023-03-11T17:10:46.198Z,43.41
2023-03-11T17:13:15.496Z,43.85
2023-03-11T17:15:44.226Z,43.68
2023-03-11T17:18:13.072Z,43.93
2023-03-11T17:20:42.497Z,44.90
2023-03-11T17:23:13.647Z,44.22
2023-03-11T17:25:44.469Z,44.52
2023-03-11T17:28:12.422Z,44.82
2023-03-11T17:30:45.756Z,44.97
2023-03-11T17:33:38.913Z,45.04
2023-03-11T17:36:33.682Z,45.22
2023-03-11T17:39:03.058Z,44.91
2023-03-11T17:41:31.701Z,45.00
2023-03-11T17:43:59.420Z,44.55
2023-03-11T17:46:26.960Z,45.50
2023-03-11T17:48:57.038Z,45.47
2023-03-11T17:51:26.878Z,45.62
2023-03-11T17:53:58.428Z,45.84
2023-03-11T17:56:26.228Z,45.78
2023-03-11T17:58:55.192Z,46.07
2023-03-11T18:01:25.948Z,45.80
2023-03-11T18:03:54.670Z,46.25
2023-03-11T18:06:22.750Z,47.16
2023-03-11T18:08:50.887Z,47.48
2023-03-11T18:11:22.020Z,48.16
2023-03-11T18:13:49.982Z,48.91
2023-03-11T18:16:20.328Z,48.75
2023-03-11T18:18:48.358Z,48.49
2023-03-11T18:21:25.385Z,49.06
2023-03-11T18:23:56.864Z,49.20
2023-03-11T18:26:30.241Z,49.18
2023-03-11T18:29:00.158Z,48.90
2023-03-11T18:31:30.652Z,49.47
2023-03-11T18:34:01.257Z,49.69
2023-03-11T18:36:53.896Z,49.23
2023-03-11T18:39:22.204Z,49.62
2023-03-11T18:41:50.586Z,49.95
2023-03-11T18:44:18.059Z,49.91
2023-03-11T18:46:46.585Z,50.30
2023-03-11T18:49:14.421Z,50.43
2023-03-11T18:51:42.655Z,50.38
2023-03-11T18:54:12.389Z,50.75
2023-03-11T18:56:40.463Z,50.94
2023-03-11T18:59:08.393Z,50.50
2023-03-11T19:01:39.255Z,50.75
2023-03-11T19:04:07.573Z,51.16
2023-03-11T19:06:35.315Z,51.13
2023-03-11T19:09:03.846Z,51.08
2023-03-11T19:11:31.487Z,50.96
2023-03-11T19:13:59.177Z,50.98
2023-03-11T19:16:28.831Z,50.89
2023-03-11T19:18:58.558Z,50.72
2023-03-11T19:21:26.656Z,51.16
2023-03-11T19:23:54.793Z,50.68
2023-03-11T19:26:30.855Z,51.45
2023-03-11T19:29:30.719Z,51.63
2023-03-11T19:32:01.669Z,51.36
2023-03-11T19:34:32.235Z,51.19
2023-03-11T19:36:59.945Z,51.51
2023-03-11T19:39:28.050Z,51.41
2023-03-11T19:41:55.343Z,51.42
2023-03-11T19:44:23.933Z,51.66
2023-03-11T19:46:55.861Z,51.60
2023-03-11T19:49:23.251Z,51.45
2023-03-11T19:51:51.011Z,51.41
2023-03-11T19:54:20.174Z,51.66
2023-03-11T19:56:50.704Z,52.18
2023-03-11T19:59:18.208Z,52.31
2023-03-11T20:01:46.287Z,52.14
2023-03-11T20:04:15.767Z,52.65
2023-03-11T20:06:46.448Z,52.56
2023-03-11T20:09:14.716Z,52.33
2023-03-11T20:11:42.636Z,52.89
2023-03-11T20:14:10.665Z,52.85
2023-03-11T20:16:38.696Z,53.08
2023-03-11T20:19:08.655Z,53.48
2023-03-11T20:21:37.098Z,53.25
2023-03-11T20:24:05.721Z,53.71
2023-03-11T20:26:34.679Z,53.29
2023-03-11T20:29:02.386Z,53.77
2023-03-11T20:31:32.916Z,53.88
2023-03-11T20:34:03.169Z,53.88
2023-03-11T20:36:34.575Z,54.34
2023-03-11T20:39:06.868Z,54.02
2023-03-11T20:41:39.463Z,54.18
2023-03-11T20:44:09.314Z,54.40
2023-03-11T20:46:37.434Z,54.63
2023-03-11T20:49:07.451Z,54.16
2023-03-11T20:51:35.295Z,54.89
2023-03-11T20:54:03.899Z,55.14
2023-03-11T20:56:34.632Z,55.01
2023-03-11T20:59:01.832Z,54.89
2023-03-11T21:01:31.629Z,54.77
2023-03-11T21:04:03.625Z,55.22
2023-03-11T21:06:37.041Z,55.19
2023-03-11T21:09:11.539Z,55.56
2023-03-11T21:11:38.673Z,55.72
2023-03-11T21:14:07.400Z,55.13
2023-03-11T21:16:35.405Z,55.35
2023-03-11T21:19:03.392Z,55.43
2023-03-11T21:21:32.494Z,55.17
2023-03-11T21:24:00.894Z,55.58
2023-03-11T21:26:28.417Z,55.55
2023-03-11T21:28:55.422Z,55.47
2023-03-11T21:31:28.570Z,55.88
2023-03-11T21:33:58.440Z,56.18
2023-03-11T21:36:29.776Z,55.63
2023-03-11T21:39:02.906Z,55.87
2023-03-11T21:41:32.431Z,55.66
2023-03-11T21:44:00.152Z,55.79
2023-03-11T21:46:31.256Z,55.73
2023-03-11T21:49:00.393Z,56.17
2023-03-11T21:51:27.913Z,56.30
2023-03-11T21:53:56.127Z,55.89
2023-03-11T21:56:23.406Z,55.80
2023-03-11T21:58:52.309Z,56.21
2023-03-11T22:01:19.194Z,55.96
2023-03-11T22:03:46.282Z,56.14
2023-03-11T22:06:14.471Z,56.35
2023-03-11T22:08:42.056Z,56.10
2023-03-11T22:11:15.485Z,56.48
2023-03-11T22:13:43.668Z,56.11
2023-03-11T22:16:10.756Z,56.31
2023-03-11T22:18:37.710Z,56.02
2023-03-11T22:21:05.779Z,56.13
2023-03-11T22:23:32.579Z,56.29
2023-03-11T22:26:00.381Z,56.19
2023-03-11T22:28:27.949Z,55.92
2023-03-11T22:30:54.997Z,56.62
2023-03-11T22:33:21.766Z,55.58
2023-03-11T22:35:59.481Z,56.20
2023-03-11T22:38:26.462Z,56.46
2023-03-11T22:40:53.229Z,56.35
2023-03-11T22:43:20.084Z,55.94
2023-03-11T22:45:48.164Z,56.75
2023-03-11T22:48:14.979Z,56.32
2023-03-11T22:50:45.337Z,56.51
2023-03-11T22:53:13.500Z,57.04
2023-03-11T22:55:42.131Z,56.46
2023-03-11T22:58:11.190Z,56.44
2023-03-11T23:00:38.337Z,56.46
2023-03-11T23:06:00.389Z,56.89
2023-03-11T23:08:27.450Z,57.02
2023-03-11T23:10:54.854Z,57.01
2023-03-11T23:13:21.691Z,56.43
2023-03-11T23:15:48.933Z,56.30
2023-03-11T23:18:15.846Z,57.03
2023-03-11T23:20:44.428Z,56.80
2023-03-11T23:23:12.254Z,57.06
2023-03-11T23:25:41.392Z,56.83
2023-03-11T23:28:08.910Z,56.71
2023-03-11T23:30:36.174Z,56.46
2023-03-11T23:33:03.543Z,56.84
2023-03-11T23:35:31.538Z,56.74
2023-03-11T23:37:59.017Z,56.97
2023-03-11T23:40:26.599Z,57.33
2023-03-11T23:42:53.390Z,57.55
2023-03-11T23:45:20.198Z,57.57
2023-03-11T23:47:47.023Z,57.23
2023-03-11T23:50:13.892Z,57.58
2023-03-11T23:52:40.847Z,58.22
2023-03-11T23:55:08.723Z,58.48
2023-03-11T23:57:37.752Z,58.40
